createdAt,value
2022-10-23T00:01:39.636Z,10.90
2022-10-23T00:04:20.787Z,10.80
2022-10-23T00:06:48.859Z,10.90
2022-10-23T00:09:19.268Z,10.90
2022-10-23T00:11:48.062Z,10.90
2022-10-23T00:14:16.900Z,10.90
2022-10-23T00:16:44.307Z,10.80
2022-10-23T00:19:11.631Z,10.80
2022-10-23T00:21:39.421Z,10.90
2022-10-23T00:26:38.331Z,10.80
2022-10-23T00:29:05.198Z,10.80
2022-10-23T00:31:32.327Z,10.80
2022-10-23T00:33:59.508Z,10.80
2022-10-23T00:36:26.541Z,10.90
2022-10-23T00:38:53.366Z,10.80
2022-10-23T00:41:25.628Z,10.90
2022-10-23T00:44:04.548Z,10.90
2022-10-23T00:46:31.761Z,10.90
2022-10-23T00:48:59.636Z,10.80
2022-10-23T00:51:32.144Z,10.80
2022-10-23T00:54:23.010Z,10.80
2022-10-23T00:56:47.787Z,10.90
2022-10-23T00:59:15.302Z,10.90
2022-10-23T01:01:42.782Z,10.90
2022-10-23T01:04:10.775Z,10.80
2022-10-23T01:06:58.741Z,10.90
2022-10-23T01:09:38.390Z,10.90
2022-10-23T01:12:16.529Z,10.90
2022-10-23T01:15:01.812Z,10.90
2022-10-23T01:17:50.048Z,10.90
2022-10-23T01:21:03.275Z,10.90
2022-10-23T01:24:10.291Z,10.90
2022-10-23T01:26:59.251Z,10.90
2022-10-23T01:29:32.091Z,10.90
2022-10-23T01:32:14.077Z,10.90
2022-10-23T01:35:14.466Z,10.80
2022-10-23T01:37:53.944Z,10.80
2022-10-23T01:40:42.209Z,10.90
2022-10-23T01:43:18.085Z,10.90
2022-10-23T01:45:59.560Z,10.80
2022-10-23T01:48:29.512Z,10.80
2022-10-23T01:51:03.277Z,10.80
2022-10-23T01:53:34.764Z,10.70
2022-10-23T01:56:03.694Z,10.70
2022-10-23T01:58:32.872Z,10.70
2022-10-23T02:01:03.921Z,10.70
2022-10-23T02:03:33.350Z,10.70
2022-10-23T02:06:00.468Z,10.80
2022-10-23T02:08:27.894Z,10.80
2022-10-23T02:11:15.560Z,10.70
2022-10-23T02:13:48.356Z,10.60
2022-10-23T02:16:30.068Z,10.60
2022-10-23T02:19:13.520Z,10.60
2022-10-23T02:21:52.722Z,10.60
2022-10-23T02:24:34.411Z,10.70
2022-10-23T02:27:14.059Z,10.70
2022-10-23T02:29:50.582Z,10.70
2022-10-23T02:32:20.706Z,10.60
2022-10-23T02:34:48.025Z,10.60
2022-10-23T02:37:15.822Z,10.70
2022-10-23T02:39:42.807Z,10.60
2022-10-23T02:42:27.215Z,10.60
2022-10-23T02:45:21.768Z,10.70
2022-10-23T02:48:21.267Z,10.70
2022-10-23T02:51:07.361Z,10.80
2022-10-23T02:54:02.727Z,10.80
2022-10-23T02:57:06.444Z,10.70
2022-10-23T02:59:49.874Z,10.70
2022-10-23T03:02:40.399Z,10.60
2022-10-23T03:05:12.446Z,10.60
2022-10-23T03:07:41.284Z,10.60
2022-10-23T03:10:09.720Z,10.70
2022-10-23T03:12:36.752Z,10.60
2022-10-23T03:15:05.834Z,10.60
2022-10-23T03:17:32.834Z,10.60
2022-10-23T03:19:59.872Z,10.60
2022-10-23T03:22:26.842Z,10.60
2022-10-23T03:24:53.638Z,10.50
2022-10-23T03:27:20.514Z,10.40
2022-10-23T03:29:47.514Z,10.40
2022-10-23T03:32:14.304Z,10.30
2022-10-23T03:34:41.220Z,10.30
2022-10-23T03:37:08.085Z,10.30
2022-10-23T03:39:34.927Z,10.30
2022-10-23T03:42:01.831Z,10.30
2022-10-23T03:44:31.022Z,10.30
2022-10-23T03:46:58.919Z,10.20
2022-10-23T03:49:25.750Z,10.20
2022-10-23T03:51:53.012Z,10.20
2022-10-23T03:54:26.061Z,10.20
2022-10-23T03:56:56.652Z,10.20
2022-10-23T03:59:24.631Z,10.20
2022-10-23T04:01:51.910Z,10.20
2022-10-23T04:04:19.011Z,10.10
2022-10-23T04:06:45.877Z,10.10
2022-10-23T04:11:44.754Z,10.10
2022-10-23T04:14:13.955Z,10.00
2022-10-23T04:16:40.922Z,10.00
2022-10-23T04:19:07.912Z,10.00
2022-10-23T04:21:34.775Z,10.00
2022-10-23T04:24:01.655Z,10.00
2022-10-23T04:26:28.515Z,10.10
2022-10-23T04:28:55.464Z,10.20
2022-10-23T04:31:22.261Z,10.30
2022-10-23T04:33:49.161Z,10.40
2022-10-23T04:36:16.081Z,10.40
2022-10-23T04:38:42.942Z,10.40
2022-10-23T04:41:09.852Z,10.40
2022-10-23T04:43:36.751Z,10.50
2022-10-23T04:46:04.021Z,10.60
2022-10-23T04:48:30.864Z,10.60
2022-10-23T04:51:06.170Z,10.70
2022-10-23T04:53:33.661Z,10.70
2022-10-23T04:56:00.842Z,10.70
2022-10-23T04:58:29.438Z,10.70
2022-10-23T05:00:56.758Z,10.70
2022-10-23T05:03:25.616Z,10.70
2022-10-23T05:05:55.368Z,10.60
2022-10-23T05:08:23.610Z,10.50
2022-10-23T05:10:51.087Z,10.50
2022-10-23T05:13:19.884Z,10.40
2022-10-23T05:15:52.149Z,10.40
2022-10-23T05:18:26.200Z,10.40
2022-10-23T05:21:21.812Z,10.30
2022-10-23T05:23:49.518Z,10.20
2022-10-23T05:26:16.321Z,10.20
2022-10-23T05:28:43.142Z,10.10
2022-10-23T05:31:10.750Z,10.00
2022-10-23T05:33:37.984Z,10.00
2022-10-23T05:36:05.739Z,10.00
2022-10-23T05:38:35.567Z,9.90
2022-10-23T05:41:03.115Z,9.90
2022-10-23T05:43:31.221Z,9.90
2022-10-23T05:45:59.398Z,9.90
2022-10-23T05:48:41.112Z,9.90
2022-10-23T05:51:10.737Z,10.00
2022-10-23T05:53:40.308Z,9.90
2022-10-23T05:56:09.905Z,9.90
2022-10-23T05:58:37.098Z,9.90
2022-10-23T06:01:10.742Z,9.90
2022-10-23T06:03:39.423Z,9.90
2022-10-23T06:06:07.312Z,9.90
2022-10-23T06:08:34.973Z,9.90
2022-10-23T06:11:14.568Z,9.90
2022-10-23T06:13:46.306Z,9.90
2022-10-23T06:16:17.525Z,9.90
2022-10-23T06:18:45.882Z,9.90
2022-10-23T06:21:14.486Z,9.90
2022-10-23T06:23:43.181Z,10.00
2022-10-23T06:26:12.810Z,10.00
2022-10-23T06:28:40.230Z,10.10
2022-10-23T06:31:13.498Z,10.20
2022-10-23T06:33:41.242Z,10.30
2022-10-23T06:36:10.731Z,10.30
2022-10-23T06:38:40.582Z,10.40
2022-10-23T06:41:17.137Z,10.40
2022-10-23T06:43:44.182Z,10.40
2022-10-23T06:46:11.094Z,10.50
2022-10-23T06:48:38.003Z,10.60
2022-10-23T06:53:35.977Z,10.80
2022-10-23T06:56:05.535Z,11.00
2022-10-23T06:58:33.895Z,11.20
2022-10-23T07:01:03.223Z,11.30
2022-10-23T07:03:30.195Z,11.40
2022-10-23T07:06:00.303Z,11.50
2022-10-23T07:08:27.199Z,11.50
2022-10-23T07:10:54.386Z,11.60
2022-10-23T07:13:22.330Z,11.80
2022-10-23T07:15:49.286Z,11.90
2022-10-23T07:18:16.968Z,12.00
2022-10-23T07:20:43.960Z,12.10
2022-10-23T07:23:12.214Z,12.10
2022-10-23T07:25:39.221Z,12.20
2022-10-23T07:28:06.076Z,12.20
2022-10-23T07:30:33.225Z,12.40
2022-10-23T07:33:00.341Z,12.60
2022-10-23T07:35:27.208Z,12.80
2022-10-23T07:37:54.124Z,13.10
2022-10-23T07:40:21.805Z,13.20
2022-10-23T07:42:48.651Z,13.50
2022-10-23T07:45:15.811Z,13.70
2022-10-23T07:47:42.825Z,13.80
2022-10-23T07:50:10.090Z,14.10
2022-10-23T07:52:37.059Z,14.60
2022-10-23T07:55:04.498Z,15.10
2022-10-23T07:57:31.329Z,15.50
2022-10-23T07:59:58.160Z,15.70
2022-10-23T08:02:25.085Z,15.80
2022-10-23T08:04:51.915Z,16.10
2022-10-23T08:07:18.919Z,16.20
2022-10-23T08:09:45.828Z,16.30
2022-10-23T08:12:12.995Z,16.30
2022-10-23T08:14:39.970Z,16.40
2022-10-23T08:17:09.989Z,16.50
2022-10-23T08:19:37.251Z,16.60
2022-10-23T08:22:04.670Z,16.70
2022-10-23T08:24:31.543Z,16.80
2022-10-23T08:26:58.864Z,17.00
2022-10-23T08:29:25.848Z,17.00
2022-10-23T08:31:57.365Z,16.90
2022-10-23T08:34:24.760Z,17.00
2022-10-23T08:36:51.722Z,17.00
2022-10-23T08:39:18.558Z,16.90
2022-10-23T08:41:51.728Z,16.90
2022-10-23T08:44:48.839Z,17.00
2022-10-23T08:47:41.783Z,17.00
2022-10-23T08:50:27.540Z,16.90
2022-10-23T08:53:00.520Z,16.90
2022-10-23T08:55:34.425Z,16.90
2022-10-23T08:58:08.352Z,16.90
2022-10-23T09:00:35.843Z,16.90
2022-10-23T09:03:05.578Z,17.00
2022-10-23T09:06:08.837Z,17.00
2022-10-23T09:09:04.076Z,17.00
2022-10-23T09:12:17.719Z,17.10
2022-10-23T09:15:08.141Z,17.10
2022-10-23T09:17:41.412Z,17.10
2022-10-23T09:20:36.345Z,17.20
2022-10-23T09:23:17.868Z,17.20
2022-10-23T09:25:47.922Z,17.20
2022-10-23T09:28:23.578Z,17.30
2022-10-23T09:30:52.182Z,17.30
2022-10-23T09:33:26.555Z,17.30
2022-10-23T09:36:01.796Z,17.20
2022-10-23T09:38:32.685Z,17.20
2022-10-23T09:41:14.427Z,17.20
2022-10-23T09:43:41.469Z,17.30
2022-10-23T09:46:09.279Z,17.40
2022-10-23T09:48:37.123Z,17.50
2022-10-23T09:51:24.470Z,17.70
2022-10-23T09:53:55.546Z,17.80
2022-10-23T09:56:40.875Z,17.80
2022-10-23T09:59:14.039Z,17.80
2022-10-23T10:01:54.025Z,18.00
2022-10-23T10:04:37.018Z,18.10
2022-10-23T10:07:17.320Z,18.30
2022-10-23T10:09:44.103Z,18.40
2022-10-23T10:12:47.415Z,18.50
2022-10-23T10:15:27.881Z,18.60
2022-10-23T10:18:14.129Z,18.80
2022-10-23T10:21:05.051Z,18.90
2022-10-23T10:23:50.646Z,19.10
2022-10-23T10:27:09.212Z,19.10
2022-10-23T10:30:04.233Z,19.10
2022-10-23T10:32:47.417Z,19.20
2022-10-23T10:35:55.108Z,19.20
2022-10-23T10:38:53.733Z,19.30
2022-10-23T10:41:46.665Z,19.20
2022-10-23T10:44:24.631Z,19.30
2022-10-23T10:47:09.754Z,19.40
2022-10-23T10:49:50.569Z,19.50
2022-10-23T10:52:33.728Z,19.60
2022-10-23T10:55:24.550Z,19.70
2022-10-23T10:58:11.016Z,19.80
2022-10-23T11:00:37.913Z,19.60
2022-10-23T11:03:42.603Z,19.50
2022-10-23T11:06:22.834Z,19.50
2022-10-23T11:08:57.877Z,19.40
2022-10-23T11:11:43.576Z,19.50
2022-10-23T11:14:29.903Z,19.60
2022-10-23T11:17:37.886Z,19.60
2022-10-23T11:20:58.160Z,19.70
2022-10-23T11:24:05.382Z,19.90
2022-10-23T11:27:08.671Z,20.00
2022-10-23T11:30:01.773Z,20.10
2022-10-23T11:33:02.716Z,20.20
2022-10-23T11:36:29.077Z,20.10
2022-10-23T11:39:25.014Z,20.20
2022-10-23T11:42:15.460Z,20.40
2022-10-23T11:44:49.472Z,20.50
2022-10-23T11:47:41.595Z,20.60
2022-10-23T11:50:08.537Z,20.70
2022-10-23T11:53:13.564Z,20.80
2022-10-23T11:56:11.632Z,20.90
2022-10-23T11:58:51.603Z,21.10
2022-10-23T12:01:41.842Z,21.20
2022-10-23T12:04:14.978Z,21.20
2022-10-23T12:06:53.724Z,21.10
2022-10-23T12:09:45.158Z,21.10
2022-10-23T12:12:11.924Z,21.20
2022-10-23T12:14:50.713Z,21.60
2022-10-23T12:17:30.603Z,21.70
2022-10-23T12:20:19.760Z,21.90
2022-10-23T12:23:17.442Z,22.00
2022-10-23T12:25:53.239Z,22.00
2022-10-23T12:28:31.804Z,21.90
2022-10-23T12:31:55.104Z,22.00
2022-10-23T12:34:35.559Z,22.00
2022-10-23T12:37:55.120Z,21.90
2022-10-23T12:40:29.650Z,22.10
2022-10-23T12:42:59.849Z,22.20
2022-10-23T12:45:40.207Z,22.40
2022-10-23T12:48:07.044Z,22.60
2022-10-23T12:50:34.787Z,22.70
2022-10-23T12:53:05.303Z,22.80
2022-10-23T12:56:06.595Z,22.70
2022-10-23T12:58:35.494Z,22.40
2022-10-23T13:03:34.253Z,22.20
2022-10-23T13:06:03.068Z,22.10
2022-10-23T13:08:42.619Z,21.90
2022-10-23T13:11:16.524Z,21.90
2022-10-23T13:13:43.542Z,21.80
2022-10-23T13:16:20.525Z,21.80
2022-10-23T13:18:49.060Z,21.70
2022-10-23T13:21:24.253Z,21.70
2022-10-23T13:23:53.060Z,21.70
2022-10-23T13:26:33.668Z,21.60
2022-10-23T13:29:07.444Z,21.60
2022-10-23T13:31:36.846Z,21.60
2022-10-23T13:34:16.399Z,21.50
2022-10-23T13:39:30.303Z,21.20
2022-10-23T13:42:10.822Z,21.10
2022-10-23T13:44:38.154Z,21.10
2022-10-23T13:47:05.478Z,21.00
2022-10-23T13:49:34.947Z,21.00
2022-10-23T13:52:02.071Z,21.00
2022-10-23T13:54:29.843Z,21.10
2022-10-23T13:56:57.443Z,21.00
2022-10-23T13:59:24.438Z,20.90
2022-10-23T14:01:51.678Z,20.80
2022-10-23T14:04:19.307Z,20.80
2022-10-23T14:06:46.385Z,20.80
2022-10-23T14:09:17.292Z,20.80
2022-10-23T14:11:45.054Z,20.70
2022-10-23T14:14:12.000Z,20.80
2022-10-23T14:16:38.896Z,20.80
2022-10-23T14:19:06.711Z,20.80
2022-10-23T14:21:33.645Z,21.00
2022-10-23T14:24:00.596Z,21.20
2022-10-23T14:26:30.131Z,21.60
2022-10-23T14:29:00.677Z,22.10
2022-10-23T14:31:31.475Z,22.10
2022-10-23T14:34:00.681Z,21.90
2022-10-23T14:39:15.979Z,21.20
2022-10-23T14:41:42.836Z,21.00
2022-10-23T14:44:09.707Z,20.70
2022-10-23T14:46:38.431Z,20.50
2022-10-23T14:49:05.724Z,20.30
2022-10-23T14:51:32.907Z,20.30
2022-10-23T14:54:02.584Z,20.30
2022-10-23T14:56:32.903Z,20.40
2022-10-23T14:59:03.189Z,20.70
2022-10-23T15:01:45.647Z,21.10
2022-10-23T15:04:17.492Z,21.60
2022-10-23T15:06:52.996Z,22.40
2022-10-23T15:09:21.147Z,23.20
2022-10-23T15:11:49.827Z,23.40
2022-10-23T15:14:17.255Z,23.80
2022-10-23T15:16:50.146Z,23.80
2022-10-23T15:19:19.092Z,23.00
2022-10-23T15:24:22.120Z,21.30
2022-10-23T15:26:52.809Z,20.70
2022-10-23T15:29:26.409Z,20.40
2022-10-23T15:31:57.609Z,20.00
2022-10-23T15:34:27.888Z,19.80
2022-10-23T15:36:56.990Z,19.70
2022-10-23T15:39:27.073Z,19.50
2022-10-23T15:41:56.851Z,19.40
2022-10-23T15:44:27.361Z,19.30
2022-10-23T15:46:57.034Z,19.10
2022-10-23T15:49:26.996Z,19.10
2022-10-23T15:54:22.226Z,18.80
2022-10-23T15:56:53.214Z,18.80
2022-10-23T15:59:24.335Z,18.70
2022-10-23T16:01:51.954Z,18.60
2022-10-23T16:04:19.286Z,18.50
2022-10-23T16:06:46.613Z,18.40
2022-10-23T16:09:14.343Z,18.40
2022-10-23T16:11:42.804Z,18.30
2022-10-23T16:14:14.987Z,18.20
2022-10-23T16:16:42.743Z,18.10
2022-10-23T16:19:11.358Z,18.00
2022-10-23T16:21:38.404Z,18.00
2022-10-23T16:24:08.164Z,18.00
2022-10-23T16:26:35.934Z,18.00
2022-10-23T16:29:06.609Z,17.90
2022-10-23T16:31:33.732Z,17.90
2022-10-23T16:34:03.478Z,17.90
2022-10-23T16:36:30.890Z,17.90
2022-10-23T16:38:57.796Z,17.80
2022-10-23T20:21:38.929Z,16.30
2022-10-23T20:24:06.950Z,16.30
2022-10-23T20:26:34.013Z,16.30
2022-10-23T20:29:00.847Z,16.30
2022-10-23T20:31:28.355Z,16.30
2022-10-23T20:33:56.399Z,16.30
2022-10-23T20:36:32.775Z,16.30
2022-10-23T20:39:05.344Z,16.40
2022-10-23T20:41:33.430Z,16.50
2022-10-23T20:44:00.708Z,16.50
2022-10-23T20:46:27.608Z,16.50
2022-10-23T20:48:56.555Z,16.50
2022-10-23T20:51:25.465Z,16.50
2022-10-23T20:53:54.646Z,16.50
2022-10-23T20:56:31.244Z,16.50
2022-10-23T20:59:06.587Z,16.60
2022-10-23T21:01:34.942Z,16.50
2022-10-23T21:04:03.630Z,16.50
2022-10-23T21:06:45.746Z,16.60
2022-10-23T21:09:21.483Z,16.50
2022-10-23T21:11:48.360Z,16.50
2022-10-23T21:14:15.622Z,16.50
2022-10-23T21:16:44.623Z,16.50
2022-10-23T21:19:15.796Z,16.50
2022-10-23T21:21:43.303Z,16.50
2022-10-23T21:24:14.955Z,16.70
2022-10-23T21:26:42.347Z,16.70
2022-10-23T21:29:18.968Z,16.70
2022-10-23T21:31:52.205Z,16.70
2022-10-23T21:34:19.258Z,16.70
2022-10-23T21:37:10.710Z,16.60
2022-10-23T21:39:34.280Z,16.70
2022-10-23T21:42:01.055Z,16.80
2022-10-23T21:44:28.033Z,16.80
2022-10-23T21:46:55.316Z,16.70
2022-10-23T21:49:22.229Z,16.70
2022-10-23T21:51:49.077Z,16.80
2022-10-23T21:54:15.958Z,16.70
2022-10-23T21:56:49.533Z,16.70
2022-10-23T21:59:21.948Z,16.70
2022-10-23T22:01:49.365Z,16.70
2022-10-23T22:04:18.760Z,16.70
2022-10-23T22:06:48.368Z,16.80
2022-10-23T22:09:19.466Z,16.70
2022-10-23T22:11:48.668Z,16.70
2022-10-23T22:14:15.792Z,16.80
2022-10-23T22:16:42.712Z,16.70
2022-10-23T22:19:12.857Z,16.80
2022-10-23T22:21:40.914Z,16.80
2022-10-23T22:24:08.899Z,16.70
2022-10-23T22:26:43.238Z,16.80
2022-10-23T22:29:20.095Z,16.80
2022-10-23T22:31:49.795Z,16.90
2022-10-23T22:37:19.038Z,16.90
2022-10-23T22:39:45.878Z,16.70
2022-10-23T22:42:12.851Z,16.70
2022-10-23T22:44:39.619Z,16.80
2022-10-23T22:47:07.274Z,16.80
2022-10-23T22:49:34.055Z,16.70
2022-10-23T22:52:00.920Z,16.60
2022-10-23T22:54:28.325Z,16.70
2022-10-23T22:56:55.105Z,16.70
2022-10-23T22:59:21.966Z,16.70
2022-10-23T23:01:49.986Z,16.70
2022-10-23T23:07:10.379Z,16.70
2022-10-23T23:09:43.074Z,16.70
2022-10-23T23:12:12.878Z,16.70
2022-10-23T23:14:40.124Z,16.60
2022-10-23T23:17:08.117Z,16.60
2022-10-23T23:19:35.409Z,16.50
2022-10-23T23:22:02.395Z,16.50
2022-10-23T23:24:29.387Z,16.50
2022-10-23T23:26:56.290Z,16.50
2022-10-23T23:29:23.270Z,16.50
2022-10-23T23:31:50.161Z,16.40
2022-10-23T23:34:16.933Z,16.40
2022-10-23T23:36:43.741Z,16.40
2022-10-23T23:39:10.804Z,16.40
2022-10-23T23:41:38.324Z,16.40
2022-10-23T23:44:05.437Z,16.40
2022-10-23T23:46:32.251Z,16.40
2022-10-23T23:48:59.063Z,16.40
2022-10-23T23:51:26.411Z,16.30
2022-10-23T23:53:53.552Z,16.30
2022-10-23T23:56:21.658Z,16.40
2022-10-23T23:58:48.712Z,16.40
